Time;durP1;ratioP1;P1;durP2;ratioP2;P2;SDS_P1;SDS_P2;PMS_P1;PMS_P2;Temp;Humidity;BMP_temperature;BMP_pressure;BME280_temperature;BME280_humidity;BME280_pressure;Samples;Min_cycle;Max_cycle;Signal;HPM_P1;HPM_P2
2022/01/02 00:01:45;;;;;;;;;;;10.70;99.90;;;;;;5132682;27;19938;-79
2022/01/02 00:04:15;;;;;;;;;;;10.70;99.90;;;;;;5137062;27;19919;-80
2022/01/02 00:06:45;;;;;;;;;;;10.70;99.90;;;;;;5135788;27;19912;-77
2022/01/02 00:09:12;;;;;;;;;;;10.70;99.90;;;;;;5136657;27;20010;-77
2022/01/02 00:11:40;;;;;;;;;;;10.70;99.90;;;;;;5135898;27;19912;-80
2022/01/02 00:14:07;;;;;;;;;;;10.70;99.90;;;;;;5136540;27;19997;-77
2022/01/02 00:16:33;;;;;;;;;;;10.70;99.90;;;;;;5135627;27;19916;-78
2022/01/02 00:19:07;;;;;;;;;;;10.70;99.90;;;;;;5136169;27;19908;-78
2022/01/02 00:21:34;;;;;;;;;;;10.60;99.90;;;;;;5135310;27;20372;-78
2022/01/02 00:24:06;;;;;;;;;;;10.60;99.90;;;;;;5135880;27;20360;-78
2022/01/02 00:26:44;;;;;;;;;;;10.60;99.90;;;;;;5134583;27;19908;-78
2022/01/02 00:29:10;;;;;;;;;;;10.60;99.90;;;;;;5136337;27;19908;-77
2022/01/02 00:31:36;;;;;;;;;;;10.60;99.90;;;;;;5135214;27;20300;-78
2022/01/02 00:34:02;;;;;;;;;;;10.50;99.90;;;;;;5136096;27;19908;-78
2022/01/02 00:36:28;;;;;;;;;;;10.50;99.90;;;;;;5144349;27;19964;-77
2022/01/02 00:38:54;;;;;;;;;;;10.50;99.90;;;;;;5156715;27;19942;-78
2022/01/02 00:41:25;;;;;;;;;;;10.50;99.90;;;;;;5156397;27;19914;-78
2022/01/02 00:44:07;;;;;;;;;;;10.40;99.90;;;;;;5156066;27;20135;-78
2022/01/02 00:46:34;;;;;;;;;;;10.40;99.90;;;;;;5155858;27;20379;-78
2022/01/02 00:49:02;;;;;;;;;;;10.40;99.90;;;;;;5156458;27;19907;-79
2022/01/02 00:51:28;;;;;;;;;;;10.30;99.90;;;;;;5144554;27;19915;-77
2022/01/02 00:53:55;;;;;;;;;;;10.20;99.90;;;;;;5135696;27;20375;-79
2022/01/02 00:56:23;;;;;;;;;;;10.20;99.90;;;;;;5135918;27;19919;-78
2022/01/02 00:58:50;;;;;;;;;;;10.20;99.90;;;;;;5135222;27;19923;-78
2022/01/02 01:01:19;;;;;;;;;;;10.20;99.90;;;;;;5136146;27;19915;-78
2022/01/02 01:03:45;;;;;;;;;;;10.20;99.90;;;;;;5117011;27;20341;-78
2022/01/02 01:06:11;;;;;;;;;;;10.20;99.90;;;;;;5136100;27;19998;-77
2022/01/02 01:08:40;;;;;;;;;;;10.20;99.90;;;;;;5134160;27;20480;-77
2022/01/02 01:11:08;;;;;;;;;;;10.20;99.90;;;;;;5135803;27;19915;-77
2022/01/02 01:13:34;;;;;;;;;;;10.20;99.90;;;;;;5133888;27;19951;-77
2022/01/02 01:16:00;;;;;;;;;;;10.30;99.90;;;;;;5135874;27;19971;-77
2022/01/02 01:18:26;;;;;;;;;;;10.30;99.90;;;;;;5135623;27;19960;-78
2022/01/02 01:20:53;;;;;;;;;;;10.30;99.90;;;;;;5134868;27;19912;-77
2022/01/02 01:23:19;;;;;;;;;;;10.30;99.90;;;;;;5135742;27;20370;-77
2022/01/02 01:25:46;;;;;;;;;;;10.30;99.90;;;;;;5135031;27;19990;-77
2022/01/02 01:28:12;;;;;;;;;;;10.30;99.90;;;;;;5135176;27;20375;-78
2022/01/02 01:30:38;;;;;;;;;;;10.30;99.90;;;;;;5134633;27;19908;-77
2022/01/02 01:33:04;;;;;;;;;;;10.30;99.90;;;;;;5135525;27;19914;-77
2022/01/02 01:35:29;;;;;;;;;;;10.30;99.90;;;;;;5116509;27;19916;-77
2022/01/02 01:37:55;;;;;;;;;;;10.20;99.90;;;;;;5134985;27;19996;-77
2022/01/02 01:40:21;;;;;;;;;;;10.20;99.90;;;;;;5135135;27;20342;-77
2022/01/02 01:42:57;;;;;;;;;;;10.20;99.90;;;;;;5134196;27;19920;-77
2022/01/02 01:47:50;;;;;;;;;;;10.10;99.90;;;;;;5137398;27;19937;-78
2022/01/02 01:50:16;;;;;;;;;;;10.10;99.90;;;;;;5155825;27;20381;-78
2022/01/02 01:52:42;;;;;;;;;;;10.10;99.90;;;;;;5154903;27;19907;-78
2022/01/02 01:55:08;;;;;;;;;;;10.10;99.90;;;;;;5156041;27;19984;-78
2022/01/02 01:57:34;;;;;;;;;;;10.10;99.90;;;;;;5154512;27;19907;-77
2022/01/02 02:00:02;;;;;;;;;;;10.10;99.90;;;;;;5155403;27;19915;-77
2022/01/02 02:02:28;;;;;;;;;;;10.10;99.90;;;;;;5155728;27;20394;-77
2022/01/02 02:04:53;;;;;;;;;;;10.10;99.90;;;;;;5154936;27;19908;-77
2022/01/02 02:07:26;;;;;;;;;;;10.10;99.90;;;;;;5155516;27;19907;-77
2022/01/02 02:10:11;;;;;;;;;;;10.10;99.90;;;;;;5155292;27;19903;-78
2022/01/02 02:12:38;;;;;;;;;;;10.10;99.90;;;;;;5136303;27;19915;-77
2022/01/02 02:15:04;;;;;;;;;;;10.10;99.90;;;;;;5155054;27;20339;-77
2022/01/02 02:17:30;;;;;;;;;;;10.10;99.90;;;;;;5155177;27;19913;-78
2022/01/02 02:19:56;;;;;;;;;;;10.10;99.90;;;;;;5154495;27;19968;-77
2022/01/02 02:22:24;;;;;;;;;;;10.00;99.90;;;;;;5155036;27;19907;-77
2022/01/02 02:24:50;;;;;;;;;;;10.00;99.90;;;;;;5153563;27;19911;-76
2022/01/02 02:27:20;;;;;;;;;;;10.00;99.90;;;;;;5155159;27;19907;-76
2022/01/02 02:29:46;;;;;;;;;;;10.00;99.90;;;;;;5154352;27;19907;-76
2022/01/02 02:32:12;;;;;;;;;;;10.00;99.90;;;;;;5136497;27;19929;-77
2022/01/02 02:34:37;;;;;;;;;;;10.00;99.90;;;;;;5153914;27;19907;-75
2022/01/02 02:37:03;;;;;;;;;;;10.00;99.90;;;;;;5154650;27;20018;-76
2022/01/02 02:39:32;;;;;;;;;;;10.00;99.90;;;;;;5154747;27;20454;-76
2022/01/02 02:41:58;;;;;;;;;;;10.00;99.90;;;;;;5135357;27;19911;-76
2022/01/02 02:44:36;;;;;;;;;;;10.00;99.90;;;;;;5154882;27;19959;-76
2022/01/02 02:49:46;;;;;;;;;;;10.10;99.90;;;;;;5153633;27;19930;-76
2022/01/02 02:52:36;;;;;;;;;;;10.00;99.90;;;;;;5154793;27;20364;-77
2022/01/02 02:55:02;;;;;;;;;;;10.00;99.90;;;;;;5154359;27;19959;-77
2022/01/02 02:57:28;;;;;;;;;;;10.00;99.90;;;;;;5154443;27;19914;-77
2022/01/02 02:59:53;;;;;;;;;;;10.00;99.90;;;;;;5148967;27;19964;-77
2022/01/02 03:02:19;;;;;;;;;;;9.90;99.90;;;;;;5133860;27;20326;-77
2022/01/02 03:04:44;;;;;;;;;;;10.00;99.90;;;;;;5133034;27;19908;-77
2022/01/02 03:07:10;;;;;;;;;;;10.00;99.90;;;;;;5133468;27;19915;-77
2022/01/02 03:09:41;;;;;;;;;;;10.00;99.90;;;;;;5133413;27;19951;-76
2022/01/02 03:12:08;;;;;;;;;;;10.00;99.90;;;;;;5133684;27;19907;-77
2022/01/02 03:14:33;;;;;;;;;;;10.00;99.90;;;;;;5133953;27;19962;-77
2022/01/02 03:16:59;;;;;;;;;;;10.00;99.90;;;;;;5132820;27;19979;-77
2022/01/02 03:19:24;;;;;;;;;;;10.00;99.90;;;;;;5133309;27;19915;-77
2022/01/02 03:21:50;;;;;;;;;;;10.00;99.90;;;;;;5132849;27;20252;-77
2022/01/02 03:24:16;;;;;;;;;;;10.00;99.90;;;;;;5133909;27;19930;-78
2022/01/02 03:26:41;;;;;;;;;;;10.10;99.90;;;;;;5132405;27;19915;-77
2022/01/02 03:29:07;;;;;;;;;;;10.00;99.90;;;;;;5133214;27;20389;-76
2022/01/02 03:31:32;;;;;;;;;;;9.90;99.90;;;;;;5133129;28;19911;-76
2022/01/02 03:33:58;;;;;;;;;;;9.90;99.90;;;;;;5132494;28;19924;-76
2022/01/02 03:36:23;;;;;;;;;;;9.90;99.90;;;;;;5141345;27;19919;-76
2022/01/02 03:38:49;;;;;;;;;;;9.90;99.90;;;;;;5157672;27;19914;-77
2022/01/02 03:41:15;;;;;;;;;;;9.90;99.90;;;;;;5158541;27;19930;-76
2022/01/02 03:43:40;;;;;;;;;;;9.90;99.90;;;;;;5158285;27;19958;-76
2022/01/02 03:46:06;;;;;;;;;;;9.90;99.90;;;;;;5158801;27;20009;-77
2022/01/02 03:48:32;;;;;;;;;;;9.80;99.90;;;;;;5158676;27;19907;-77
2022/01/02 03:50:58;;;;;;;;;;;9.80;99.90;;;;;;5157632;27;19922;-77
2022/01/02 03:53:23;;;;;;;;;;;9.80;99.90;;;;;;5158358;27;19907;-76
2022/01/02 03:55:49;;;;;;;;;;;9.90;99.90;;;;;;5157338;27;20010;-76
2022/01/02 03:58:14;;;;;;;;;;;9.90;99.90;;;;;;5157683;27;19942;-77
2022/01/02 04:00:40;;;;;;;;;;;9.90;99.90;;;;;;5157418;27;20492;-75
2022/01/02 04:03:06;;;;;;;;;;;9.90;99.90;;;;;;5157624;27;19907;-76
2022/01/02 04:05:31;;;;;;;;;;;9.90;99.90;;;;;;5158012;27;19914;-76
2022/01/02 04:07:57;;;;;;;;;;;9.80;99.90;;;;;;5157184;27;19914;-77
2022/01/02 04:10:22;;;;;;;;;;;9.80;99.90;;;;;;5158224;27;19907;-78
2022/01/02 04:12:48;;;;;;;;;;;9.80;99.90;;;;;;5144265;27;19912;-77
2022/01/02 04:15:14;;;;;;;;;;;9.70;99.90;;;;;;5136968;27;19916;-78
2022/01/02 04:17:40;;;;;;;;;;;9.70;99.90;;;;;;5136976;27;19954;-76
2022/01/02 04:20:07;;;;;;;;;;;9.70;99.90;;;;;;5136096;27;20277;-76
2022/01/02 04:22:33;;;;;;;;;;;9.70;99.90;;;;;;5136869;27;19914;-76
2022/01/02 04:24:59;;;;;;;;;;;9.80;99.90;;;;;;5117719;27;19907;-76
2022/01/02 04:27:24;;;;;;;;;;;9.70;99.90;;;;;;5136876;27;20371;-76
2022/01/02 04:29:50;;;;;;;;;;;9.70;99.90;;;;;;5136043;27;20301;-76
2022/01/02 04:32:16;;;;;;;;;;;9.70;99.90;;;;;;5136525;27;19911;-77
2022/01/02 04:34:42;;;;;;;;;;;9.80;99.90;;;;;;5136197;27;19907;-77
2022/01/02 04:37:07;;;;;;;;;;;9.70;99.90;;;;;;5136141;27;19907;-76
2022/01/02 04:39:33;;;;;;;;;;;9.80;99.90;;;;;;5136754;27;19934;-76
2022/01/02 04:41:59;;;;;;;;;;;9.70;99.90;;;;;;5135496;27;19907;-76
2022/01/02 04:44:25;;;;;;;;;;;9.70;99.90;;;;;;5136251;27;19915;-77
2022/01/02 04:46:50;;;;;;;;;;;9.70;99.90;;;;;;5135600;27;19911;-76
2022/01/02 04:49:16;;;;;;;;;;;9.80;99.90;;;;;;5152263;27;19911;-77
2022/01/02 04:51:41;;;;;;;;;;;9.80;99.90;;;;;;5138580;27;19907;-76
2022/01/02 04:54:07;;;;;;;;;;;9.80;99.90;;;;;;5156319;27;19915;-77
2022/01/02 04:56:33;;;;;;;;;;;9.80;99.90;;;;;;5156958;27;19922;-77
2022/01/02 04:58:58;;;;;;;;;;;9.80;99.90;;;;;;5155654;27;20439;-77
2022/01/02 05:01:24;;;;;;;;;;;9.80;99.90;;;;;;5156625;27;19907;-77
2022/01/02 05:03:49;;;;;;;;;;;9.80;99.90;;;;;;5156035;27;19914;-76
2022/01/02 05:06:15;;;;;;;;;;;9.80;99.90;;;;;;5156868;27;19907;-77
2022/01/02 05:08:45;;;;;;;;;;;9.80;99.90;;;;;;5156537;27;20257;-77
2022/01/02 05:11:10;;;;;;;;;;;9.80;99.90;;;;;;5156562;27;19931;-76
2022/01/02 05:13:36;;;;;;;;;;;9.80;99.90;;;;;;5156593;27;19959;-76
2022/01/02 05:16:02;;;;;;;;;;;9.80;99.90;;;;;;5155800;27;19924;-76
2022/01/02 05:18:27;;;;;;;;;;;9.80;99.90;;;;;;5156193;27;19956;-77
2022/01/02 05:20:53;;;;;;;;;;;9.90;99.90;;;;;;5156075;27;20002;-77
2022/01/02 05:23:19;;;;;;;;;;;9.80;99.90;;;;;;5137693;27;20291;-76
2022/01/02 05:25:45;;;;;;;;;;;9.80;99.90;;;;;;5135482;27;19911;-77
2022/01/02 05:28:10;;;;;;;;;;;9.80;99.90;;;;;;5135150;27;19960;-76
2022/01/02 05:30:37;;;;;;;;;;;9.80;99.90;;;;;;5135512;27;19968;-77
2022/01/02 05:33:03;;;;;;;;;;;9.80;99.90;;;;;;5145608;27;19911;-76
2022/01/02 05:35:29;;;;;;;;;;;9.70;99.90;;;;;;5156198;27;19960;-77
2022/01/02 05:37:55;;;;;;;;;;;9.70;99.90;;;;;;5155269;27;20367;-76
2022/01/02 05:40:21;;;;;;;;;;;9.70;99.90;;;;;;5156024;27;19911;-76
2022/01/02 05:42:47;;;;;;;;;;;9.70;99.90;;;;;;5155794;27;19918;-76
2022/01/02 05:45:12;;;;;;;;;;;9.70;99.90;;;;;;5155690;27;20363;-76
2022/01/02 05:47:38;;;;;;;;;;;9.70;99.90;;;;;;5155989;27;19911;-77
2022/01/02 05:50:05;;;;;;;;;;;9.70;99.90;;;;;;5155125;27;19957;-76
2022/01/02 05:52:31;;;;;;;;;;;9.80;99.90;;;;;;5155887;27;19915;-77
2022/01/02 05:54:57;;;;;;;;;;;9.70;99.90;;;;;;5155060;27;19913;-76
2022/01/02 05:57:22;;;;;;;;;;;9.70;99.90;;;;;;5155427;27;19907;-77
2022/01/02 05:59:48;;;;;;;;;;;9.80;99.90;;;;;;5154460;27;19914;-76
2022/01/02 06:02:14;;;;;;;;;;;9.70;99.90;;;;;;5154651;27;19911;-76
2022/01/02 06:04:39;;;;;;;;;;;9.80;99.90;;;;;;5155639;27;19911;-77
2022/01/02 06:07:05;;;;;;;;;;;9.80;99.90;;;;;;5154516;27;20328;-77
2022/01/02 06:09:31;;;;;;;;;;;9.80;99.90;;;;;;5155541;27;19997;-76
2022/01/02 06:11:56;;;;;;;;;;;9.80;99.90;;;;;;5154770;27;20339;-77
2022/01/02 06:14:22;;;;;;;;;;;9.80;99.90;;;;;;5155635;27;19922;-77
2022/01/02 06:16:47;;;;;;;;;;;9.80;99.90;;;;;;5155051;27;19915;-77
2022/01/02 06:19:13;;;;;;;;;;;9.70;99.90;;;;;;5154298;27;20010;-77
2022/01/02 06:21:39;;;;;;;;;;;9.80;99.90;;;;;;5155349;27;20005;-76
2022/01/02 06:24:04;;;;;;;;;;;9.70;99.90;;;;;;5154524;27;19976;-76
2022/01/02 06:26:30;;;;;;;;;;;9.70;99.90;;;;;;5155131;27;20419;-76
2022/01/02 06:28:55;;;;;;;;;;;9.70;99.90;;;;;;5166401;27;20370;-76
2022/01/02 06:31:21;;;;;;;;;;;9.70;99.90;;;;;;5157590;27;19915;-77
2022/01/02 06:33:46;;;;;;;;;;;9.80;99.90;;;;;;5155016;27;19911;-77
2022/01/02 06:36:12;;;;;;;;;;;9.80;99.90;;;;;;5154151;27;19911;-76
2022/01/02 06:38:38;;;;;;;;;;;9.90;99.90;;;;;;5154461;27;19949;-78
2022/01/02 06:41:03;;;;;;;;;;;9.90;99.90;;;;;;5153892;27;19979;-77
2022/01/02 06:43:32;;;;;;;;;;;9.90;99.90;;;;;;5154947;27;19969;-76
2022/01/02 06:45:57;;;;;;;;;;;9.90;99.90;;;;;;5135242;27;19908;-77
2022/01/02 06:48:23;;;;;;;;;;;9.90;99.90;;;;;;5154521;27;19913;-77
2022/01/02 06:50:48;;;;;;;;;;;9.90;99.90;;;;;;5154786;27;19998;-77
2022/01/02 06:53:14;;;;;;;;;;;9.90;99.90;;;;;;5154255;27;20442;-77
2022/01/02 06:55:39;;;;;;;;;;;9.90;99.90;;;;;;5154648;27;19915;-77
2022/01/02 06:58:08;;;;;;;;;;;9.90;99.90;;;;;;5153596;27;20356;-76
2022/01/02 07:00:34;;;;;;;;;;;9.90;99.90;;;;;;5136181;27;19907;-77
2022/01/02 07:03:00;;;;;;;;;;;9.90;99.90;;;;;;5153543;27;19907;-76
2022/01/02 07:05:25;;;;;;;;;;;9.90;99.90;;;;;;5154603;27;20352;-77
2022/01/02 07:07:52;;;;;;;;;;;9.90;99.90;;;;;;5154238;27;20006;-77
2022/01/02 07:10:18;;;;;;;;;;;9.80;99.90;;;;;;5153929;27;20001;-77
2022/01/02 07:12:44;;;;;;;;;;;9.90;99.90;;;;;;5124228;27;19988;-77
2022/01/02 07:15:09;;;;;;;;;;;9.90;99.90;;;;;;5132711;27;19919;-77
2022/01/02 07:17:35;;;;;;;;;;;9.90;99.90;;;;;;5133399;27;20123;-76
2022/01/02 07:20:04;;;;;;;;;;;9.90;99.90;;;;;;5132945;27;19919;-77
2022/01/02 07:22:29;;;;;;;;;;;9.90;99.90;;;;;;5133435;27;19912;-78
2022/01/02 07:24:55;;;;;;;;;;;9.90;99.90;;;;;;5132921;27;19916;-77
2022/01/02 07:27:21;;;;;;;;;;;9.90;99.90;;;;;;5133285;27;19918;-77
2022/01/02 07:29:47;;;;;;;;;;;10.00;99.90;;;;;;5133304;27;19911;-78
2022/01/02 07:32:13;;;;;;;;;;;10.00;99.90;;;;;;5132493;28;20240;-77
2022/01/02 07:34:38;;;;;;;;;;;9.90;99.90;;;;;;5149475;27;20014;-76
2022/01/02 07:37:04;;;;;;;;;;;9.90;99.90;;;;;;5153118;27;20017;-76
2022/01/02 07:39:29;;;;;;;;;;;9.90;99.90;;;;;;5154501;27;19907;-76
2022/01/02 07:41:55;;;;;;;;;;;9.90;99.90;;;;;;5153876;27;19929;-76
2022/01/02 07:44:21;;;;;;;;;;;9.90;99.90;;;;;;5135061;27;19911;-76
2022/01/02 07:46:46;;;;;;;;;;;9.90;99.90;;;;;;5154139;27;20411;-77
2022/01/02 07:49:12;;;;;;;;;;;9.90;99.90;;;;;;5138092;27;19915;-76
2022/01/02 07:51:37;;;;;;;;;;;9.90;99.90;;;;;;5134658;27;20260;-77
2022/01/02 07:54:03;;;;;;;;;;;9.90;99.90;;;;;;5153325;27;19955;-76
2022/01/02 07:56:29;;;;;;;;;;;9.90;99.90;;;;;;5153336;27;19915;-76
2022/01/02 07:58:57;;;;;;;;;;;9.90;99.90;;;;;;5154118;27;19919;-76
2022/01/02 08:01:23;;;;;;;;;;;9.90;99.90;;;;;;5167507;27;19907;-78
2022/01/02 08:03:48;;;;;;;;;;;9.90;99.90;;;;;;5161887;27;19998;-77
2022/01/02 08:06:14;;;;;;;;;;;9.90;99.90;;;;;;5152939;27;19919;-77
2022/01/02 08:08:39;;;;;;;;;;;9.90;99.90;;;;;;5154087;27;19954;-77
2022/01/02 08:11:05;;;;;;;;;;;9.90;99.90;;;;;;5134358;27;20002;-76
2022/01/02 08:13:31;;;;;;;;;;;9.90;99.90;;;;;;5153626;27;19919;-77
2022/01/02 08:15:56;;;;;;;;;;;9.90;99.90;;;;;;5153489;27;19915;-77
2022/01/02 08:18:22;;;;;;;;;;;9.90;99.90;;;;;;5134549;27;19908;-77
2022/01/02 08:20:47;;;;;;;;;;;9.90;99.90;;;;;;5153747;27;19911;-77
2022/01/02 08:23:13;;;;;;;;;;;9.90;99.90;;;;;;5153948;27;19907;-77
2022/01/02 08:25:39;;;;;;;;;;;9.90;99.90;;;;;;5137541;27;20423;-77
2022/01/02 08:28:05;;;;;;;;;;;10.00;99.90;;;;;;5135829;27;20037;-76
2022/01/02 08:30:31;;;;;;;;;;;10.00;99.90;;;;;;5136874;27;19949;-77
2022/01/02 08:32:56;;;;;;;;;;;10.00;99.90;;;;;;5136467;27;19907;-77
2022/01/02 08:35:22;;;;;;;;;;;10.00;99.90;;;;;;5117174;27;19920;-77
2022/01/02 08:37:48;;;;;;;;;;;10.00;99.90;;;;;;5136438;27;19907;-76
2022/01/02 08:40:13;;;;;;;;;;;10.00;99.90;;;;;;5135763;27;19942;-76
2022/01/02 08:42:39;;;;;;;;;;;10.00;99.90;;;;;;5136336;27;19908;-77
2022/01/02 08:45:05;;;;;;;;;;;10.00;99.90;;;;;;5135441;27;20383;-77
2022/01/02 08:47:30;;;;;;;;;;;10.10;99.90;;;;;;5136685;27;19965;-76
2022/01/02 08:49:56;;;;;;;;;;;10.10;99.90;;;;;;5136398;27;19939;-76
2022/01/02 08:52:22;;;;;;;;;;;10.00;99.90;;;;;;5135494;27;19904;-76
2022/01/02 08:54:47;;;;;;;;;;;10.10;99.90;;;;;;5135910;27;20315;-78
2022/01/02 08:57:13;;;;;;;;;;;10.10;99.90;;;;;;5134811;27;19916;-78
2022/01/02 08:59:39;;;;;;;;;;;10.10;99.90;;;;;;5137951;27;19995;-77
2022/01/02 09:02:04;;;;;;;;;;;10.10;99.90;;;;;;5155829;27;19911;-76
2022/01/02 09:04:30;;;;;;;;;;;10.10;99.90;;;;;;5156554;27;20376;-78
2022/01/02 09:06:56;;;;;;;;;;;10.20;99.90;;;;;;5138895;27;19994;-79
2022/01/02 09:09:21;;;;;;;;;;;10.10;99.90;;;;;;5134928;27;19908;-78
2022/01/02 09:11:47;;;;;;;;;;;10.10;99.90;;;;;;5135869;27;20274;-78
2022/01/02 09:14:13;;;;;;;;;;;10.20;99.90;;;;;;5116317;27;19907;-78
2022/01/02 09:16:40;;;;;;;;;;;10.10;99.90;;;;;;5117268;27;19915;-79
2022/01/02 09:19:06;;;;;;;;;;;10.20;99.90;;;;;;5135049;27;20378;-77
2022/01/02 09:21:31;;;;;;;;;;;10.20;99.90;;;;;;5135892;27;19918;-79
2022/01/02 09:23:57;;;;;;;;;;;10.20;99.90;;;;;;5135813;27;19907;-78
2022/01/02 09:26:22;;;;;;;;;;;10.20;99.90;;;;;;5135669;27;20581;-78
2022/01/02 09:28:48;;;;;;;;;;;10.20;99.90;;;;;;5135498;27;19952;-78
2022/01/02 09:31:14;;;;;;;;;;;10.20;99.90;;;;;;5137697;27;19908;-78
2022/01/02 09:33:39;;;;;;;;;;;10.20;99.90;;;;;;5144195;27;19951;-78
2022/01/02 09:36:05;;;;;;;;;;;10.30;99.90;;;;;;5123382;27;19915;-77
2022/01/02 09:38:30;;;;;;;;;;;10.30;99.90;;;;;;5128294;27;19952;-79
2022/01/02 09:40:58;;;;;;;;;;;10.40;99.90;;;;;;5144087;27;20016;-78
2022/01/02 09:43:24;;;;;;;;;;;10.40;99.90;;;;;;5144263;27;19907;-76
2022/01/02 09:45:49;;;;;;;;;;;10.40;99.90;;;;;;5143280;27;19972;-76
2022/01/02 09:48:15;;;;;;;;;;;10.40;99.90;;;;;;5118636;27;20456;-77
2022/01/02 09:50:41;;;;;;;;;;;10.40;99.90;;;;;;5142971;27;19985;-76
2022/01/02 09:53:07;;;;;;;;;;;10.50;99.90;;;;;;5143238;27;19911;-76
2022/01/02 09:55:32;;;;;;;;;;;10.50;99.90;;;;;;5142167;27;19916;-76
2022/01/02 09:58:03;;;;;;;;;;;10.50;99.90;;;;;;5133983;27;20213;-75
2022/01/02 10:00:29;;;;;;;;;;;10.60;99.90;;;;;;5136653;27;19911;-76
2022/01/02 10:02:59;;;;;;;;;;;10.70;99.90;;;;;;5145656;27;19907;-77
2022/01/02 10:05:26;;;;;;;;;;;10.80;99.90;;;;;;5146226;27;19907;-76
2022/01/02 10:07:52;;;;;;;;;;;10.80;99.90;;;;;;5155604;27;19907;-76
2022/01/02 10:10:18;;;;;;;;;;;10.80;99.90;;;;;;5154550;27;19907;-76
2022/01/02 10:12:44;;;;;;;;;;;10.80;99.90;;;;;;5154778;27;20261;-76
2022/01/02 10:15:11;;;;;;;;;;;10.80;99.90;;;;;;5154482;27;19909;-76
2022/01/02 10:17:51;;;;;;;;;;;10.80;99.90;;;;;;5155126;27;19911;-76
2022/01/02 10:20:17;;;;;;;;;;;10.80;99.90;;;;;;5154473;27;19907;-76
2022/01/02 10:22:59;;;;;;;;;;;10.90;99.90;;;;;;5155246;27;19960;-76
2022/01/02 10:25:37;;;;;;;;;;;10.90;99.90;;;;;;5154303;27;19907;-76
2022/01/02 10:28:21;;;;;;;;;;;10.90;99.90;;;;;;5155060;27;19907;-76
2022/01/02 10:30:47;;;;;;;;;;;10.90;99.90;;;;;;5154864;27;19911;-77
2022/01/02 10:33:13;;;;;;;;;;;10.90;99.90;;;;;;5124908;27;20352;-76
2022/01/02 10:35:40;;;;;;;;;;;10.90;99.90;;;;;;5139386;27;20378;-76
2022/01/02 10:38:06;;;;;;;;;;;10.90;99.90;;;;;;5142803;27;19908;-78
2022/01/02 10:40:38;;;;;;;;;;;10.80;99.90;;;;;;5138153;27;19914;-78
2022/01/02 10:43:11;;;;;;;;;;;10.80;99.90;;;;;;5134179;27;19957;-78
2022/01/02 10:45:37;;;;;;;;;;;10.80;99.90;;;;;;5135481;27;19908;-77
2022/01/02 10:48:11;;;;;;;;;;;10.80;99.90;;;;;;5133851;27;20253;-77
2022/01/02 10:50:38;;;;;;;;;;;10.80;99.90;;;;;;5134037;27;19908;-77
2022/01/02 10:53:10;;;;;;;;;;;10.70;99.90;;;;;;5133617;27;19907;-78
2022/01/02 10:55:36;;;;;;;;;;;10.70;99.90;;;;;;5133392;27;20014;-78
2022/01/02 10:58:06;;;;;;;;;;;10.70;99.90;;;;;;5133480;27;20486;-78
2022/01/02 11:00:31;;;;;;;;;;;10.80;99.90;;;;;;5132550;27;20795;-78
2022/01/02 11:02:58;;;;;;;;;;;10.70;99.90;;;;;;5133534;27;20044;-78
2022/01/02 11:05:27;;;;;;;;;;;10.70;99.90;;;;;;5114314;27;20256;-77
2022/01/02 11:07:58;;;;;;;;;;;10.70;99.90;;;;;;5133187;27;19908;-77
2022/01/02 11:10:24;;;;;;;;;;;10.70;99.90;;;;;;5132696;27;19907;-76
2022/01/02 11:12:50;;;;;;;;;;;10.70;99.90;;;;;;5133344;27;19984;-77
2022/01/02 11:15:17;;;;;;;;;;;10.70;99.90;;;;;;5132576;27;19938;-77
2022/01/02 11:17:44;;;;;;;;;;;10.70;99.90;;;;;;5133312;27;19911;-76
2022/01/02 11:20:12;;;;;;;;;;;10.70;99.90;;;;;;5133276;27;19946;-76
2022/01/02 11:22:52;;;;;;;;;;;10.70;99.90;;;;;;5133203;27;19908;-76
2022/01/02 11:25:26;;;;;;;;;;;10.70;99.90;;;;;;5132409;27;19912;-76
2022/01/02 11:27:58;;;;;;;;;;;10.60;99.90;;;;;;5133505;27;19913;-76
2022/01/02 11:30:30;;;;;;;;;;;10.70;99.90;;;;;;5132532;27;19908;-78
2022/01/02 11:33:00;;;;;;;;;;;10.70;99.90;;;;;;5133293;27;19998;-78
2022/01/02 11:35:27;;;;;;;;;;;10.70;99.90;;;;;;5132380;28;19915;-76
2022/01/02 11:37:53;;;;;;;;;;;10.70;99.90;;;;;;5133202;28;19908;-76
2022/01/02 11:40:38;;;;;;;;;;;10.70;99.90;;;;;;5132671;28;19943;-76
2022/01/02 11:43:04;;;;;;;;;;;10.70;99.90;;;;;;5133324;28;19908;-77
2022/01/02 11:45:31;;;;;;;;;;;10.70;99.90;;;;;;5132664;28;19914;-76
2022/01/02 11:47:57;;;;;;;;;;;10.70;99.90;;;;;;5132798;28;20337;-76
2022/01/02 11:50:32;;;;;;;;;;;10.70;99.90;;;;;;5132761;28;19911;-76
2022/01/02 11:53:13;;;;;;;;;;;10.60;99.90;;;;;;5133194;28;19961;-76
2022/01/02 11:55:39;;;;;;;;;;;10.70;99.90;;;;;;5132474;28;19929;-76
2022/01/02 11:58:05;;;;;;;;;;;10.70;99.90;;;;;;5134184;27;19994;-77
2022/01/02 12:00:35;;;;;;;;;;;10.70;99.90;;;;;;5136178;27;19953;-76
2022/01/02 12:03:01;;;;;;;;;;;10.70;99.90;;;;;;5136980;27;20417;-77
2022/01/02 12:05:27;;;;;;;;;;;10.80;99.90;;;;;;5135235;27;19907;-75
2022/01/02 12:07:56;;;;;;;;;;;10.80;99.90;;;;;;5140394;27;20391;-76
2022/01/02 12:10:24;;;;;;;;;;;10.80;99.90;;;;;;5148122;27;20248;-76
2022/01/02 12:13:16;;;;;;;;;;;10.80;99.90;;;;;;5148565;27;20285;-77
2022/01/02 12:15:42;;;;;;;;;;;10.80;99.90;;;;;;5149497;27;19922;-77
2022/01/02 12:18:26;;;;;;;;;;;10.80;99.90;;;;;;5145779;27;19957;-77
2022/01/02 12:20:52;;;;;;;;;;;10.80;99.90;;;;;;5136617;27;19907;-76
2022/01/02 12:23:30;;;;;;;;;;;10.80;99.90;;;;;;5135839;27;19908;-76
2022/01/02 12:26:12;;;;;;;;;;;10.80;99.90;;;;;;5136295;27;19907;-76
2022/01/02 12:28:48;;;;;;;;;;;10.80;99.90;;;;;;5136109;27;19907;-75
2022/01/02 12:31:15;;;;;;;;;;;10.90;99.90;;;;;;5143098;27;20325;-78
2022/01/02 12:33:41;;;;;;;;;;;10.90;99.90;;;;;;5126898;27;20411;-76
2022/01/02 12:36:09;;;;;;;;;;;10.90;99.90;;;;;;5141774;27;20002;-79
2022/01/02 12:38:44;;;;;;;;;;;10.90;99.90;;;;;;5135307;27;19904;-76
2022/01/02 12:41:10;;;;;;;;;;;11.00;99.90;;;;;;5136280;27;19961;-77
2022/01/02 12:43:36;;;;;;;;;;;11.00;99.90;;;;;;5135350;27;20047;-76
2022/01/02 12:46:02;;;;;;;;;;;11.00;99.90;;;;;;5137722;27;19914;-76
2022/01/02 12:48:34;;;;;;;;;;;11.00;99.90;;;;;;5126205;27;19907;-77
2022/01/02 12:51:12;;;;;;;;;;;11.00;99.90;;;;;;5142757;27;20015;-75
2022/01/02 12:53:38;;;;;;;;;;;10.90;99.90;;;;;;5155936;27;19914;-74
2022/01/02 12:56:04;;;;;;;;;;;10.90;99.90;;;;;;5156546;27;19915;-75
2022/01/02 12:58:31;;;;;;;;;;;11.00;99.90;;;;;;5155582;27;20005;-76
2022/01/02 13:01:03;;;;;;;;;;;11.10;99.90;;;;;;5147677;27;19969;-75
2022/01/02 13:03:28;;;;;;;;;;;11.10;99.90;;;;;;5143468;27;20371;-75
2022/01/02 13:05:54;;;;;;;;;;;11.10;99.90;;;;;;5138614;27;19907;-76
2022/01/02 13:08:23;;;;;;;;;;;11.10;99.90;;;;;;5135368;27;19915;-77
2022/01/02 13:10:49;;;;;;;;;;;11.10;99.90;;;;;;5117199;27;19908;-76
2022/01/02 13:13:28;;;;;;;;;;;11.00;99.90;;;;;;5141537;27;19912;-75
2022/01/02 13:15:53;;;;;;;;;;;11.10;99.90;;;;;;5144224;27;20390;-75
2022/01/02 13:18:19;;;;;;;;;;;11.10;99.90;;;;;;5147453;27;19911;-75
2022/01/02 13:20:46;;;;;;;;;;;11.10;99.90;;;;;;5158293;27;20006;-75
2022/01/02 13:23:12;;;;;;;;;;;11.10;99.90;;;;;;5162038;27;19953;-76
2022/01/02 13:25:40;;;;;;;;;;;11.10;99.90;;;;;;5160601;27;19907;-75
2022/01/02 13:28:07;;;;;;;;;;;11.10;99.90;;;;;;5159435;27;19911;-76
2022/01/02 13:30:37;;;;;;;;;;;11.10;99.90;;;;;;5149130;27;20391;-75
2022/01/02 13:33:23;;;;;;;;;;;11.10;99.90;;;;;;5147205;27;19911;-75
2022/01/02 13:35:50;;;;;;;;;;;11.00;99.90;;;;;;5155719;27;19923;-75
2022/01/02 13:38:16;;;;;;;;;;;11.10;99.90;;;;;;5148443;27;19964;-75
2022/01/02 13:40:42;;;;;;;;;;;11.10;99.90;;;;;;5142359;27;20250;-75
2022/01/02 13:43:13;;;;;;;;;;;11.10;99.90;;;;;;5143104;27;20611;-76
2022/01/02 13:45:42;;;;;;;;;;;11.10;99.90;;;;;;5143742;27;19908;-75
2022/01/02 13:48:09;;;;;;;;;;;11.10;99.90;;;;;;5146327;27;19914;-75
2022/01/02 13:50:45;;;;;;;;;;;11.10;99.90;;;;;;5145358;27;20377;-74
2022/01/02 13:53:17;;;;;;;;;;;11.10;99.90;;;;;;5126083;27;19960;-77
2022/01/02 13:55:45;;;;;;;;;;;11.10;99.90;;;;;;5143174;27;19911;-76
2022/01/02 13:58:17;;;;;;;;;;;11.10;99.90;;;;;;5144096;27;19961;-76
2022/01/02 14:00:44;;;;;;;;;;;11.10;99.90;;;;;;5133727;27;20743;-74
2022/01/02 14:03:30;;;;;;;;;;;11.10;99.90;;;;;;5134425;27;20432;-74
2022/01/02 14:05:56;;;;;;;;;;;11.10;99.90;;;;;;5134149;27;19914;-75
2022/01/02 14:08:22;;;;;;;;;;;11.10;99.90;;;;;;5134185;27;20039;-76
2022/01/02 14:11:08;;;;;;;;;;;11.20;99.90;;;;;;5133956;27;19984;-75
2022/01/02 14:13:34;;;;;;;;;;;11.10;99.90;;;;;;5132996;27;19907;-75
2022/01/02 14:16:01;;;;;;;;;;;11.20;99.90;;;;;;5134474;27;19915;-75
2022/01/02 14:18:30;;;;;;;;;;;11.10;99.90;;;;;;5133759;27;20360;-75
2022/01/02 14:21:01;;;;;;;;;;;11.10;99.90;;;;;;5115195;27;19914;-75
2022/01/02 14:23:27;;;;;;;;;;;11.10;99.90;;;;;;5133639;27;19907;-75
2022/01/02 14:25:53;;;;;;;;;;;11.10;99.90;;;;;;5115568;27;19907;-75
2022/01/02 14:28:19;;;;;;;;;;;11.10;99.90;;;;;;5134290;27;20368;-75